sensor_id;sensor_type;location;lat;lon;timestamp;temperature;humidity
1329;DHT22;658;48.820;9.354;2023-04-02T00:03:02;22.00;43.70
1329;DHT22;658;48.820;9.354;2023-04-02T00:07:27;21.90;43.70
1329;DHT22;658;48.820;9.354;2023-04-02T00:11:32;21.90;43.70
1329;DHT22;658;48.820;9.354;2023-04-02T00:15:38;21.90;43.70
1329;DHT22;658;48.820;9.354;2023-04-02T00:19:56;21.90;43.80
1329;DHT22;658;48.820;9.354;2023-04-02T00:23:59;21.80;43.70
1329;DHT22;658;48.820;9.354;2023-04-02T00:28:02;21.80;43.80
1329;DHT22;658;48.820;9.354;2023-04-02T00:32:03;21.80;43.80
1329;DHT22;658;48.820;9.354;2023-04-02T00:36:07;21.80;43.80
1329;DHT22;658;48.820;9.354;2023-04-02T00:44:16;21.80;43.80
1329;DHT22;658;48.820;9.354;2023-04-02T00:48:34;21.80;43.80
1329;DHT22;658;48.820;9.354;2023-04-02T00:52:37;21.70;43.70
1329;DHT22;658;48.820;9.354;2023-04-02T00:56:44;21.80;43.80
1329;DHT22;658;48.820;9.354;2023-04-02T01:00:48;21.70;43.70
1329;DHT22;658;48.820;9.354;2023-04-02T01:04:57;21.70;43.70
1329;DHT22;658;48.820;9.354;2023-04-02T01:30:54;21.70;43.70
1329;DHT22;658;48.820;9.354;2023-04-02T01:34:56;21.70;43.70
1329;DHT22;658;48.820;9.354;2023-04-02T01:39:14;21.70;43.70
1329;DHT22;658;48.820;9.354;2023-04-02T01:43:52;21.80;43.70
1329;DHT22;658;48.820;9.354;2023-04-02T01:47:54;21.80;43.80
1329;DHT22;658;48.820;9.354;2023-04-02T01:51:55;21.80;43.70
1329;DHT22;658;48.820;9.354;2023-04-02T01:56:01;21.80;43.80
1329;DHT22;658;48.820;9.354;2023-04-02T02:00:03;21.80;43.70
1329;DHT22;658;48.820;9.354;2023-04-02T02:04:11;21.80;43.70
1329;DHT22;658;48.820;9.354;2023-04-02T02:12:26;21.90;43.70
1329;DHT22;658;48.820;9.354;2023-04-02T02:16:28;21.80;43.80
1329;DHT22;658;48.820;9.354;2023-04-02T02:20:30;21.90;43.70
1329;DHT22;658;48.820;9.354;2023-04-02T02:24:33;21.90;43.70
1329;DHT22;658;48.820;9.354;2023-04-02T02:28:39;21.80;43.70
1329;DHT22;658;48.820;9.354;2023-04-02T02:33:04;21.80;43.70
1329;DHT22;658;48.820;9.354;2023-04-02T02:37:16;21.90;43.70
1329;DHT22;658;48.820;9.354;2023-04-02T02:41:25;21.90;43.70
1329;DHT22;658;48.820;9.354;2023-04-02T02:45:28;21.90;43.70
1329;DHT22;658;48.820;9.354;2023-04-02T02:49:41;21.90;43.70
1329;DHT22;658;48.820;9.354;2023-04-02T02:53:50;21.90;43.70
1329;DHT22;658;48.820;9.354;2023-04-02T02:58:00;21.90;43.70
1329;DHT22;658;48.820;9.354;2023-04-02T03:02:04;21.90;43.70
1329;DHT22;658;48.820;9.354;2023-04-02T03:06:08;21.90;43.70
1329;DHT22;658;48.820;9.354;2023-04-02T03:14:31;21.90;43.70
1329;DHT22;658;48.820;9.354;2023-04-02T03:22:52;21.80;43.70
1329;DHT22;658;48.820;9.354;2023-04-02T03:27:33;21.90;43.80
1329;DHT22;658;48.820;9.354;2023-04-02T03:31:35;21.80;43.60
1329;DHT22;658;48.820;9.354;2023-04-02T03:35:51;21.80;43.70
1329;DHT22;658;48.820;9.354;2023-04-02T03:40:13;21.90;43.80
1329;DHT22;658;48.820;9.354;2023-04-02T03:48:40;21.80;43.70
1329;DHT22;658;48.820;9.354;2023-04-02T03:52:44;21.80;43.70
1329;DHT22;658;48.820;9.354;2023-04-02T03:56:47;21.80;43.70
1329;DHT22;658;48.820;9.354;2023-04-02T04:01:15;21.80;43.70
1329;DHT22;658;48.820;9.354;2023-04-02T04:05:36;21.80;43.70
1329;DHT22;658;48.820;9.354;2023-04-02T04:09:38;21.80;43.70
1329;DHT22;658;48.820;9.354;2023-04-02T04:13:48;21.80;43.70
1329;DHT22;658;48.820;9.354;2023-04-02T04:18:01;21.80;43.80
1329;DHT22;658;48.820;9.354;2023-04-02T04:26:26;21.80;43.70
1329;DHT22;658;48.820;9.354;2023-04-02T04:31:01;21.80;43.70
1329;DHT22;658;48.820;9.354;2023-04-02T04:48:02;21.80;43.80
1329;DHT22;658;48.820;9.354;2023-04-02T04:52:13;21.80;43.80
1329;DHT22;658;48.820;9.354;2023-04-02T04:56:22;21.80;43.80
1329;DHT22;658;48.820;9.354;2023-04-02T05:00:47;21.80;43.80
1329;DHT22;658;48.820;9.354;2023-04-02T05:04:51;21.80;43.80
1329;DHT22;658;48.820;9.354;2023-04-02T05:08:54;21.80;43.80
1329;DHT22;658;48.820;9.354;2023-04-02T05:13:03;21.80;43.80
1329;DHT22;658;48.820;9.354;2023-04-02T05:21:38;21.80;43.80
1329;DHT22;658;48.820;9.354;2023-04-02T05:31:04;21.80;43.80
1329;DHT22;658;48.820;9.354;2023-04-02T05:35:13;21.80;43.90
1329;DHT22;658;48.820;9.354;2023-04-02T05:39:21;21.80;43.80
1329;DHT22;658;48.820;9.354;2023-04-02T05:43:23;21.80;43.80
1329;DHT22;658;48.820;9.354;2023-04-02T05:47:28;21.80;43.80
1329;DHT22;658;48.820;9.354;2023-04-02T05:51:46;21.80;43.80
1329;DHT22;658;48.820;9.354;2023-04-02T05:55:57;21.80;43.80
1329;DHT22;658;48.820;9.354;2023-04-02T06:00:04;21.80;43.80
1329;DHT22;658;48.820;9.354;2023-04-02T06:08:29;21.80;43.80
1329;DHT22;658;48.820;9.354;2023-04-02T06:12:51;21.80;43.80
1329;DHT22;658;48.820;9.354;2023-04-02T06:16:52;21.80;43.80
1329;DHT22;658;48.820;9.354;2023-04-02T06:20:53;21.80;43.80
1329;DHT22;658;48.820;9.354;2023-04-02T06:24:59;21.80;43.80
1329;DHT22;658;48.820;9.354;2023-04-02T06:33:05;21.80;43.80
1329;DHT22;658;48.820;9.354;2023-04-02T06:41:31;21.80;43.80
1329;DHT22;658;48.820;9.354;2023-04-02T06:45:37;21.80;43.80
1329;DHT22;658;48.820;9.354;2023-04-02T06:49:47;21.80;43.80
1329;DHT22;658;48.820;9.354;2023-04-02T06:53:50;21.80;43.80
1329;DHT22;658;48.820;9.354;2023-04-02T06:57:56;21.80;43.80
1329;DHT22;658;48.820;9.354;2023-04-02T07:02:00;21.80;43.80
1329;DHT22;658;48.820;9.354;2023-04-02T07:06:03;21.80;43.80
1329;DHT22;658;48.820;9.354;2023-04-02T07:10:04;21.80;43.80
1329;DHT22;658;48.820;9.354;2023-04-02T07:14:07;21.80;43.80
1329;DHT22;658;48.820;9.354;2023-04-02T07:18:33;21.80;43.80
1329;DHT22;658;48.820;9.354;2023-04-02T07:22:34;21.80;43.80
1329;DHT22;658;48.820;9.354;2023-04-02T07:26:34;21.80;43.80
1329;DHT22;658;48.820;9.354;2023-04-02T07:30:35;21.80;43.90
1329;DHT22;658;48.820;9.354;2023-04-02T07:34:39;21.80;44.00
1329;DHT22;658;48.820;9.354;2023-04-02T07:38:40;21.90;44.00
1329;DHT22;658;48.820;9.354;2023-04-02T07:42:41;21.90;43.90
1329;DHT22;658;48.820;9.354;2023-04-02T07:46:42;22.00;43.90
1329;DHT22;658;48.820;9.354;2023-04-02T07:50:42;22.00;43.90
1329;DHT22;658;48.820;9.354;2023-04-02T07:54:43;22.00;43.80
1329;DHT22;658;48.820;9.354;2023-04-02T07:58:44;22.10;43.90
1329;DHT22;658;48.820;9.354;2023-04-02T08:02:44;22.10;44.00
1329;DHT22;658;48.820;9.354;2023-04-02T08:06:46;22.20;43.90
1329;DHT22;658;48.820;9.354;2023-04-02T08:10:47;22.20;43.90
1329;DHT22;658;48.820;9.354;2023-04-02T08:14:48;22.20;43.70
1329;DHT22;658;48.820;9.354;2023-04-02T08:18:48;22.30;43.80
1329;DHT22;658;48.820;9.354;2023-04-02T08:22:51;22.20;43.60
1329;DHT22;658;48.820;9.354;2023-04-02T08:26:52;22.30;43.70
1329;DHT22;658;48.820;9.354;2023-04-02T08:30:53;22.30;43.60
1329;DHT22;658;48.820;9.354;2023-04-02T08:34:54;22.30;43.70
1329;DHT22;658;48.820;9.354;2023-04-02T08:38:56;22.30;43.70
1329;DHT22;658;48.820;9.354;2023-04-02T08:47:29;22.30;43.60
1329;DHT22;658;48.820;9.354;2023-04-02T08:51:34;22.30;43.70
1329;DHT22;658;48.820;9.354;2023-04-02T08:56:13;22.30;43.60
1329;DHT22;658;48.820;9.354;2023-04-02T09:00:41;22.30;43.70
1329;DHT22;658;48.820;9.354;2023-04-02T09:04:43;22.40;43.80
1329;DHT22;658;48.820;9.354;2023-04-02T09:08:46;22.50;43.70
1329;DHT22;658;48.820;9.354;2023-04-02T09:12:51;22.50;43.70
1329;DHT22;658;48.820;9.354;2023-04-02T09:16:54;22.60;43.70
1329;DHT22;658;48.820;9.354;2023-04-02T09:20:58;22.60;43.60
1329;DHT22;658;48.820;9.354;2023-04-02T09:25:03;22.60;43.50
1329;DHT22;658;48.820;9.354;2023-04-02T09:33:10;22.70;43.40
1329;DHT22;658;48.820;9.354;2023-04-02T09:37:20;22.80;43.40
1329;DHT22;658;48.820;9.354;2023-04-02T09:41:26;22.80;43.20
1329;DHT22;658;48.820;9.354;2023-04-02T09:45:29;22.90;43.40
1329;DHT22;658;48.820;9.354;2023-04-02T09:49:35;22.90;43.20
1329;DHT22;658;48.820;9.354;2023-04-02T09:53:46;23.00;43.20
1329;DHT22;658;48.820;9.354;2023-04-02T09:57:49;23.00;43.10
1329;DHT22;658;48.820;9.354;2023-04-02T10:06:10;23.10;43.10
1329;DHT22;658;48.820;9.354;2023-04-02T10:10:43;23.20;43.00
1329;DHT22;658;48.820;9.354;2023-04-02T10:14:47;23.10;43.00
1329;DHT22;658;48.820;9.354;2023-04-02T10:18:53;23.20;43.10
1329;DHT22;658;48.820;9.354;2023-04-02T10:22:56;23.20;43.00
1329;DHT22;658;48.820;9.354;2023-04-02T10:27:17;23.30;43.00
1329;DHT22;658;48.820;9.354;2023-04-02T10:31:23;23.30;42.90
1329;DHT22;658;48.820;9.354;2023-04-02T10:39:40;23.40;42.90
1329;DHT22;658;48.820;9.354;2023-04-02T10:52:54;23.50;42.70
1329;DHT22;658;48.820;9.354;2023-04-02T10:57:10;23.40;42.60
1329;DHT22;658;48.820;9.354;2023-04-02T11:01:19;23.40;42.60
1329;DHT22;658;48.820;9.354;2023-04-02T11:06:01;23.40;42.50
1329;DHT22;658;48.820;9.354;2023-04-02T11:10:05;23.40;42.90
1329;DHT22;658;48.820;9.354;2023-04-02T11:14:29;23.50;42.70
1329;DHT22;658;48.820;9.354;2023-04-02T11:18:32;23.50;42.60
1329;DHT22;658;48.820;9.354;2023-04-02T11:22:35;23.50;42.60
1329;DHT22;658;48.820;9.354;2023-04-02T11:26:39;23.50;42.60
1329;DHT22;658;48.820;9.354;2023-04-02T11:30:41;23.50;42.70
1329;DHT22;658;48.820;9.354;2023-04-02T11:42:46;23.50;43.00
1329;DHT22;658;48.820;9.354;2023-04-02T11:46:47;23.50;43.00
1329;DHT22;658;48.820;9.354;2023-04-02T11:50:48;23.50;42.90
1329;DHT22;658;48.820;9.354;2023-04-02T11:55:15;23.50;42.90
1329;DHT22;658;48.820;9.354;2023-04-02T12:07:56;23.50;42.60
1329;DHT22;658;48.820;9.354;2023-04-02T12:16:26;23.50;42.60
1329;DHT22;658;48.820;9.354;2023-04-02T12:20:32;23.50;42.50
1329;DHT22;658;48.820;9.354;2023-04-02T12:24:33;23.50;42.50
1329;DHT22;658;48.820;9.354;2023-04-02T12:28:34;23.50;42.50
1329;DHT22;658;48.820;9.354;2023-04-02T12:32:37;23.50;42.50
1329;DHT22;658;48.820;9.354;2023-04-02T12:36:38;23.50;42.60
1329;DHT22;658;48.820;9.354;2023-04-02T12:40:57;23.50;42.90
1329;DHT22;658;48.820;9.354;2023-04-02T12:45:02;23.40;43.00
1329;DHT22;658;48.820;9.354;2023-04-02T12:49:24;23.50;42.90
1329;DHT22;658;48.820;9.354;2023-04-02T12:53:37;23.50;42.90
1329;DHT22;658;48.820;9.354;2023-04-02T12:57:40;23.40;42.80
1329;DHT22;658;48.820;9.354;2023-04-02T13:01:54;23.40;42.90
1329;DHT22;658;48.820;9.354;2023-04-02T13:05:56;23.40;43.30
1329;DHT22;658;48.820;9.354;2023-04-02T13:09:59;23.40;43.40
1329;DHT22;658;48.820;9.354;2023-04-02T13:14:01;23.30;43.40
1329;DHT22;658;48.820;9.354;2023-04-02T13:18:04;23.30;43.50
1329;DHT22;658;48.820;9.354;2023-04-02T13:22:30;23.30;43.40
1329;DHT22;658;48.820;9.354;2023-04-02T13:26:31;23.30;43.40
1329;DHT22;658;48.820;9.354;2023-04-02T13:30:32;23.30;43.40
1329;DHT22;658;48.820;9.354;2023-04-02T13:34:32;23.30;43.50
1329;DHT22;658;48.820;9.354;2023-04-02T13:38:33;23.20;43.50
1329;DHT22;658;48.820;9.354;2023-04-02T13:42:34;23.20;43.30
1329;DHT22;658;48.820;9.354;2023-04-02T13:46:34;23.20;43.50
1329;DHT22;658;48.820;9.354;2023-04-02T13:50:35;23.30;43.70
1329;DHT22;658;48.820;9.354;2023-04-02T13:58:48;23.30;43.50
1329;DHT22;658;48.820;9.354;2023-04-02T14:02:55;23.30;43.50
1329;DHT22;658;48.820;9.354;2023-04-02T14:20:14;23.20;43.30
1329;DHT22;658;48.820;9.354;2023-04-02T14:24:39;23.20;43.20
1329;DHT22;658;48.820;9.354;2023-04-02T14:32:57;23.20;43.20
1329;DHT22;658;48.820;9.354;2023-04-02T14:41:12;23.20;43.10
1329;DHT22;658;48.820;9.354;2023-04-02T14:49:44;23.20;43.10
1329;DHT22;658;48.820;9.354;2023-04-02T14:58:09;23.10;43.00
1329;DHT22;658;48.820;9.354;2023-04-02T15:02:23;23.10;43.20
1329;DHT22;658;48.820;9.354;2023-04-02T15:06:30;23.20;44.90
1329;DHT22;658;48.820;9.354;2023-04-02T15:10:35;23.20;45.20
1329;DHT22;658;48.820;9.354;2023-04-02T15:14:43;23.20;45.30
1329;DHT22;658;48.820;9.354;2023-04-02T15:18:45;23.20;45.60
1329;DHT22;658;48.820;9.354;2023-04-02T15:23:03;23.20;45.80
1329;DHT22;658;48.820;9.354;2023-04-02T15:27:19;23.20;46.10
1329;DHT22;658;48.820;9.354;2023-04-02T15:31:25;23.20;46.20
1329;DHT22;658;48.820;9.354;2023-04-02T15:35:40;23.20;46.20
1329;DHT22;658;48.820;9.354;2023-04-02T15:40:03;23.20;46.40
1329;DHT22;658;48.820;9.354;2023-04-02T15:44:14;23.20;46.50
1329;DHT22;658;48.820;9.354;2023-04-02T15:52:18;23.10;46.20
1329;DHT22;658;48.820;9.354;2023-04-02T16:18:48;22.50;46.40
1329;DHT22;658;48.820;9.354;2023-04-02T16:23:04;22.50;46.50
1329;DHT22;658;48.820;9.354;2023-04-02T16:27:24;22.50;47.20
1329;DHT22;658;48.820;9.354;2023-04-02T16:48:25;22.70;47.90
1329;DHT22;658;48.820;9.354;2023-04-02T16:52:41;22.70;47.70
1329;DHT22;658;48.820;9.354;2023-04-02T17:01:25;22.70;47.90
1329;DHT22;658;48.820;9.354;2023-04-02T17:05:44;22.60;47.90
1329;DHT22;658;48.820;9.354;2023-04-02T17:10:01;22.60;48.10
1329;DHT22;658;48.820;9.354;2023-04-02T17:18:20;22.50;48.50
1329;DHT22;658;48.820;9.354;2023-04-02T17:22:21;22.50;48.60
1329;DHT22;658;48.820;9.354;2023-04-02T17:26:28;22.50;48.60
1329;DHT22;658;48.820;9.354;2023-04-02T17:30:38;22.40;48.60
1329;DHT22;658;48.820;9.354;2023-04-02T17:34:40;22.50;48.80
1329;DHT22;658;48.820;9.354;2023-04-02T18:13:44;22.40;43.40
1329;DHT22;658;48.820;9.354;2023-04-02T18:23:04;22.50;44.80
1329;DHT22;658;48.820;9.354;2023-04-02T18:40:20;22.60;44.90
1329;DHT22;658;48.820;9.354;2023-04-02T18:53:18;22.60;46.30
1329;DHT22;658;48.820;9.354;2023-04-02T18:57:40;22.60;46.30
1329;DHT22;658;48.820;9.354;2023-04-02T19:01:45;22.60;46.50
1329;DHT22;658;48.820;9.354;2023-04-02T19:05:54;22.50;46.10
1329;DHT22;658;48.820;9.354;2023-04-02T19:10:20;22.50;46.90
1329;DHT22;658;48.820;9.354;2023-04-02T19:14:23;22.50;47.20
1329;DHT22;658;48.820;9.354;2023-04-02T19:27:45;22.60;47.50
1329;DHT22;658;48.820;9.354;2023-04-02T19:31:25;22.50;47.60
1329;DHT22;658;48.820;9.354;2023-04-02T19:35:56;22.50;47.90
1329;DHT22;658;48.820;9.354;2023-04-02T19:44:12;22.50;48.10
1329;DHT22;658;48.820;9.354;2023-04-02T19:48:19;22.60;48.20
1329;DHT22;658;48.820;9.354;2023-04-02T19:52:21;22.50;48.20
1329;DHT22;658;48.820;9.354;2023-04-02T19:56:21;22.50;48.20
1329;DHT22;658;48.820;9.354;2023-04-02T20:00:22;22.50;48.30
1329;DHT22;658;48.820;9.354;2023-04-02T20:04:22;22.50;48.30
1329;DHT22;658;48.820;9.354;2023-04-02T20:08:23;22.50;48.30
1329;DHT22;658;48.820;9.354;2023-04-02T20:12:23;22.50;48.60
1329;DHT22;658;48.820;9.354;2023-04-02T20:16:26;22.50;48.30
1329;DHT22;658;48.820;9.354;2023-04-02T20:20:29;22.50;48.30
1329;DHT22;658;48.820;9.354;2023-04-02T20:24:30;22.50;48.00
1329;DHT22;658;48.820;9.354;2023-04-02T20:28:31;22.50;48.00
1329;DHT22;658;48.820;9.354;2023-04-02T20:32:31;22.50;48.10
1329;DHT22;658;48.820;9.354;2023-04-02T20:36:32;22.50;48.00
1329;DHT22;658;48.820;9.354;2023-04-02T20:40:34;22.50;48.10
1329;DHT22;658;48.820;9.354;2023-04-02T20:44:37;22.50;46.90
1329;DHT22;658;48.820;9.354;2023-04-02T20:48:38;22.50;47.50
1329;DHT22;658;48.820;9.354;2023-04-02T20:52:39;22.40;47.50
1329;DHT22;658;48.820;9.354;2023-04-02T20:56:41;22.50;47.70
1329;DHT22;658;48.820;9.354;2023-04-02T21:00:45;22.50;47.70
1329;DHT22;658;48.820;9.354;2023-04-02T21:04:45;22.40;47.60
1329;DHT22;658;48.820;9.354;2023-04-02T21:08:47;22.40;47.10
1329;DHT22;658;48.820;9.354;2023-04-02T21:12:48;22.40;47.40
1329;DHT22;658;48.820;9.354;2023-04-02T21:16:49;22.40;47.30
1329;DHT22;658;48.820;9.354;2023-04-02T21:21:01;22.40;47.20
1329;DHT22;658;48.820;9.354;2023-04-02T21:25:02;22.40;47.20
1329;DHT22;658;48.820;9.354;2023-04-02T21:29:03;22.30;47.10
1329;DHT22;658;48.820;9.354;2023-04-02T21:33:04;22.30;47.20
1329;DHT22;658;48.820;9.354;2023-04-02T21:37:05;22.30;47.00
1329;DHT22;658;48.820;9.354;2023-04-02T21:41:33;22.20;47.10
1329;DHT22;658;48.820;9.354;2023-04-02T21:45:34;22.20;47.00
1329;DHT22;658;48.820;9.354;2023-04-02T21:49:34;22.20;47.00
1329;DHT22;658;48.820;9.354;2023-04-02T21:53:36;22.10;46.90
1329;DHT22;658;48.820;9.354;2023-04-02T21:57:37;22.10;46.80
1329;DHT22;658;48.820;9.354;2023-04-02T22:01:40;22.10;46.80
1329;DHT22;658;48.820;9.354;2023-04-02T22:05:41;22.10;46.80
1329;DHT22;658;48.820;9.354;2023-04-02T22:09:44;22.00;46.80
1329;DHT22;658;48.820;9.354;2023-04-02T22:13:46;22.00;46.70
1329;DHT22;658;48.820;9.354;2023-04-02T22:17:49;22.00;46.70
1329;DHT22;658;48.820;9.354;2023-04-02T22:21:50;21.90;46.60
1329;DHT22;658;48.820;9.354;2023-04-02T22:25:54;21.90;46.70
1329;DHT22;658;48.820;9.354;2023-04-02T22:29:55;21.90;46.70
1329;DHT22;658;48.820;9.354;2023-04-02T22:33:58;21.80;46.60
1329;DHT22;658;48.820;9.354;2023-04-02T22:38:01;21.80;46.70
1329;DHT22;658;48.820;9.354;2023-04-02T22:42:04;21.80;46.60
1329;DHT22;658;48.820;9.354;2023-04-02T22:46:05;21.70;46.60
1329;DHT22;658;48.820;9.354;2023-04-02T22:50:06;21.80;46.60
1329;DHT22;658;48.820;9.354;2023-04-02T22:54:07;21.70;46.50
1329;DHT22;658;48.820;9.354;2023-04-02T22:58:08;21.70;46.60
1329;DHT22;658;48.820;9.354;2023-04-02T23:02:09;21.70;46.60
1329;DHT22;658;48.820;9.354;2023-04-02T23:06:11;21.70;46.60
1329;DHT22;658;48.820;9.354;2023-04-02T23:10:12;21.70;46.50
1329;DHT22;658;48.820;9.354;2023-04-02T23:14:15;21.70;46.50
1329;DHT22;658;48.820;9.354;2023-04-02T23:18:16;21.70;46.40
1329;DHT22;658;48.820;9.354;2023-04-02T23:22:16;21.70;46.40
1329;DHT22;658;48.820;9.354;2023-04-02T23:26:26;21.70;46.30
1329;DHT22;658;48.820;9.354;2023-04-02T23:30:28;21.70;46.10
1329;DHT22;658;48.820;9.354;2023-04-02T23:34:29;21.70;46.10
1329;DHT22;658;48.820;9.354;2023-04-02T23:38:29;21.70;46.00
1329;DHT22;658;48.820;9.354;2023-04-02T23:42:30;21.70;46.00
1329;DHT22;658;48.820;9.354;2023-04-02T23:46:31;21.70;45.90
1329;DHT22;658;48.820;9.354;2023-04-02T23:50:32;21.70;45.80
1329;DHT22;658;48.820;9.354;2023-04-02T23:54:32;21.70;45.80
1329;DHT22;658;48.820;9.354;2023-04-02T23:58:33;21.80;45.70
